Time;durP1;ratioP1;P1;durP2;ratioP2;P2;SDS_P1;SDS_P2;PMS_P1;PMS_P2;Temp;Humidity;BMP_temperature;BMP_pressure;BME280_temperature;BME280_humidity;BME280_pressure;Samples;Min_cycle;Max_cycle;Signal;HPM_P1;HPM_P2
2022/10/30 00:00:35;;;;;;;12.52;4.38;;;;;;;16.02;83.06;101743.03;5034981;27;99110;-30
2022/10/30 00:03:00;;;;;;;10.30;4.18;;;;;;;15.98;83.09;101740.63;5035443;27;96813;-29
2022/10/30 00:05:26;;;;;;;7.90;3.83;;;;;;;15.92;83.12;101730.97;5034512;27;116508;-31
2022/10/30 00:07:53;;;;;;;9.77;3.38;;;;;;;15.93;82.91;101728.16;5033819;28;97547;-31
2022/10/30 00:10:18;;;;;;;5.60;3.13;;;;;;;15.96;83.10;101737.13;5035009;27;97905;-31
2022/10/30 00:12:44;;;;;;;15.63;3.72;;;;;;;15.96;83.15;101738.00;5034713;27;96550;-30
2022/10/30 00:15:10;;;;;;;8.73;2.92;;;;;;;15.94;83.40;101742.69;5034459;27;99217;-29
2022/10/30 00:17:35;;;;;;;10.15;3.75;;;;;;;15.93;82.91;101744.53;5033559;28;100731;-29
2022/10/30 00:20:01;;;;;;;9.35;3.33;;;;;;;15.90;83.22;101728.38;5034077;28;97864;-31
2022/10/30 00:22:26;;;;;;;7.38;3.17;;;;;;;15.87;83.27;101730.44;5035052;27;96696;-30
2022/10/30 00:24:51;;;;;;;7.05;3.88;;;;;;;15.86;83.37;101742.34;5034832;28;104335;-30
2022/10/30 00:27:17;;;;;;;11.68;3.50;;;;;;;15.83;83.61;101737.97;5034597;28;104291;-30
2022/10/30 00:29:42;;;;;;;6.00;3.08;;;;;;;15.81;83.51;101737.22;5033631;28;98665;-30
2022/10/30 00:32:08;;;;;;;6.95;2.95;;;;;;;15.80;83.71;101740.94;5034841;27;96701;-29
2022/10/30 00:34:33;;;;;;;9.68;3.45;;;;;;;15.78;83.72;101744.72;5034987;28;96870;-31
2022/10/30 00:36:58;;;;;;;17.65;3.65;;;;;;;15.75;83.77;101731.28;5033835;28;101877;-30
2022/10/30 00:39:24;;;;;;;7.55;3.15;;;;;;;15.76;83.74;101741.25;5034118;28;112962;-30
2022/10/30 00:41:49;;;;;;;9.73;3.60;;;;;;;15.74;83.84;101748.66;5034784;27;96492;-30
2022/10/30 00:44:36;;;;;;;5.97;3.08;;;;;;;15.70;84.25;101748.88;5034949;27;96739;-29
2022/10/30 00:47:06;;;;;;;12.30;3.58;;;;;;;15.67;84.03;101737.25;5033133;28;101485;-29
2022/10/30 00:49:35;;;;;;;10.60;3.78;;;;;;;15.68;84.11;101736.25;5032737;28;101349;-30
2022/10/30 00:52:04;;;;;;;13.88;3.17;;;;;;;15.66;84.23;101740.94;5033334;28;96724;-29
2022/10/30 00:54:31;;;;;;;11.02;3.80;;;;;;;15.65;84.35;101745.53;5033321;28;96826;-29
2022/10/30 00:56:59;;;;;;;9.13;3.05;;;;;;;15.65;84.07;101737.34;5032833;28;100901;-30
2022/10/30 00:59:29;;;;;;;7.32;3.47;;;;;;;15.65;83.97;101734.63;5032973;28;101044;-29
2022/10/30 01:01:55;;;;;;;7.57;2.92;;;;;;;15.66;84.18;101746.41;5032328;27;96848;-30
2022/10/30 01:04:21;;;;;;;11.65;2.92;;;;;;;15.62;84.34;101740.31;5033155;28;96836;-29
2022/10/30 01:06:50;;;;;;;12.95;3.58;;;;;;;15.62;84.18;101745.75;5032729;28;101262;-31
2022/10/30 01:09:17;;;;;;;5.53;3.03;;;;;;;15.59;84.27;101747.81;5032923;28;100854;-29
2022/10/30 01:11:42;;;;;;;6.70;3.38;;;;;;;15.59;84.18;101739.63;5033214;28;96764;-30
2022/10/30 01:14:10;;;;;;;10.95;3.42;;;;;;;15.56;84.35;101745.31;5033860;28;110589;-31
2022/10/30 01:17:02;;;;;;;8.00;3.53;;;;;;;15.55;84.58;101754.50;5032083;28;100893;-30
2022/10/30 01:19:52;;;;;;;8.55;3.33;;;;;;;15.54;84.63;101747.25;5013822;27;99268;-30
2022/10/30 01:22:26;;;;;;;13.45;2.97;;;;;;;15.51;84.86;101748.34;5032987;28;96592;-30
2022/10/30 01:25:29;;;;;;;7.32;3.28;;;;;;;15.48;84.98;101748.56;5034074;28;96847;-29
2022/10/30 01:28:18;;;;;;;6.47;3.35;;;;;;;15.45;85.10;101755.09;5033359;28;98953;-30
2022/10/30 01:31:11;;;;;;;4.93;2.85;;;;;;;15.45;84.92;101756.97;5034400;27;97817;-29
2022/10/30 01:33:39;;;;;;;9.57;3.15;;;;;;;15.41;85.10;101752.69;5037935;28;96568;-29
2022/10/30 01:36:14;;;;;;;6.93;3.00;;;;;;;15.40;85.22;101753.69;5037708;28;96782;-29
2022/10/30 01:39:07;;;;;;;7.05;3.28;;;;;;;15.39;85.06;101755.50;5036067;28;101219;-30
2022/10/30 01:41:32;;;;;;;5.85;2.85;;;;;;;15.37;85.38;101751.13;5029090;28;98870;-30
2022/10/30 01:44:02;;;;;;;9.27;3.22;;;;;;;15.37;85.22;101760.19;5036677;27;109329;-29
2022/10/30 01:46:40;;;;;;;6.90;3.05;;;;;;;15.33;85.20;101757.81;5036374;28;96833;-31
2022/10/30 01:49:21;;;;;;;11.40;3.13;;;;;;;15.33;85.30;101758.66;5035808;27;100975;-30
2022/10/30 01:52:09;;;;;;;7.80;3.60;;;;;;;15.31;85.43;101757.88;5037064;27;98765;-31
2022/10/30 01:54:44;;;;;;;9.70;3.38;;;;;;;15.28;85.62;101758.97;5035387;28;96686;-30
2022/10/30 01:57:39;;;;;;;7.75;3.22;;;;;;;15.32;85.44;101758.75;5035941;28;96690;-29
2022/10/30 02:00:05;;;;;;;8.70;3.25;;;;;;;15.28;85.56;101756.25;5035814;28;97167;-29
2022/10/30 02:02:31;;;;;;;9.35;3.55;;;;;;;15.26;85.58;101760.06;5037175;27;97798;-29
2022/10/30 02:04:57;;;;;;;11.85;3.60;;;;;;;15.25;85.84;101761.03;5037186;28;96622;-31
2022/10/30 02:07:23;;;;;;;13.38;3.28;;;;;;;15.24;85.77;101762.00;5037580;27;96783;-30
2022/10/30 02:09:50;;;;;;;7.55;3.05;;;;;;;15.25;85.64;101764.66;5036795;28;103328;-29
2022/10/30 02:12:18;;;;;;;8.15;3.35;;;;;;;15.26;85.58;101765.50;5035719;28;100603;-30
2022/10/30 02:14:47;;;;;;;7.95;2.67;;;;;;;15.23;85.61;101761.13;5035344;28;96577;-33
2022/10/30 02:17:12;;;;;;;8.43;3.45;;;;;;;15.18;85.86;101757.84;5035576;28;96948;-30
2022/10/30 02:19:38;;;;;;;8.40;3.05;;;;;;;15.18;85.89;101760.56;5036206;28;97580;-29
2022/10/30 02:22:04;;;;;;;7.82;3.20;;;;;;;15.15;86.20;101766.22;5036516;28;97874;-30
2022/10/30 02:24:30;;;;;;;8.43;3.90;;;;;;;15.11;86.29;101759.22;5035546;28;96508;-29
2022/10/30 02:26:56;;;;;;;8.60;3.30;;;;;;;15.08;86.08;101754.81;5035546;28;96843;-29
2022/10/30 02:29:22;;;;;;;8.60;3.80;;;;;;;15.08;86.47;101771.19;5036239;27;99404;-29
2022/10/30 02:31:47;;;;;;;9.25;3.30;;;;;;;15.08;86.16;101764.88;5036408;27;99043;-30
2022/10/30 02:34:13;;;;;;;7.18;3.30;;;;;;;15.05;86.30;101779.59;5035342;28;96584;-30
2022/10/30 02:36:39;;;;;;;8.73;3.15;;;;;;;15.03;86.43;101775.22;5018961;28;96928;-29
2022/10/30 02:39:05;;;;;;;14.32;3.95;;;;;;;15.02;86.33;101778.94;5036440;27;97869;-29
2022/10/30 02:41:31;;;;;;;8.00;3.60;;;;;;;14.99;86.56;101777.28;5036037;27;99102;-30
2022/10/30 02:43:56;;;;;;;11.75;3.53;;;;;;;14.98;86.31;101777.38;5035723;27;96452;-29
2022/10/30 02:46:21;;;;;;;6.43;2.97;;;;;;;14.92;86.75;101775.94;5036779;27;96758;-29
2022/10/30 02:48:47;;;;;;;10.45;3.50;;;;;;;14.90;86.67;101774.25;5036638;27;97407;-31
2022/10/30 02:51:12;;;;;;;7.47;3.15;;;;;;;14.90;86.79;101779.69;5035162;28;97731;-30
2022/10/30 02:53:38;;;;;;;9.00;3.28;;;;;;;14.86;86.75;101779.91;5036133;27;96581;-30
2022/10/30 02:56:08;;;;;;;6.40;3.22;;;;;;;14.85;86.71;101786.34;5036675;27;96842;-29
2022/10/30 02:58:33;;;;;;;10.40;3.78;;;;;;;14.80;86.79;101780.31;5036088;27;98080;-31
2022/10/30 03:01:07;;;;;;;10.25;3.83;;;;;;;14.78;86.68;101779.53;5036381;27;97285;-30
2022/10/30 03:03:32;;;;;;;9.07;3.72;;;;;;;14.78;86.79;101786.84;5034960;28;96648;-31
2022/10/30 03:06:03;;;;;;;12.57;3.30;;;;;;;14.73;87.12;101784.44;5036374;27;96864;-29
2022/10/30 03:08:28;;;;;;;7.35;3.10;;;;;;;14.69;87.11;101777.41;5034036;28;101895;-30
2022/10/30 03:11:02;;;;;;;9.95;3.97;;;;;;;14.68;87.13;101778.38;5035854;27;97973;-30
2022/10/30 03:13:30;;;;;;;7.88;3.10;;;;;;;14.64;87.06;101763.19;5034766;28;96488;-29
2022/10/30 03:16:12;;;;;;;7.53;3.15;;;;;;;14.62;87.07;101756.97;5034061;28;96930;-29
2022/10/30 03:18:38;;;;;;;9.60;3.15;;;;;;;14.58;87.46;101755.38;5034265;28;101068;-29
2022/10/30 03:21:05;;;;;;;8.63;3.47;;;;;;;14.58;87.39;101763.56;5035541;28;99647;-29
2022/10/30 03:23:30;;;;;;;6.90;2.83;;;;;;;14.57;87.30;101765.44;5034639;28;96600;-29
2022/10/30 03:25:57;;;;;;;12.75;3.20;;;;;;;14.55;87.25;101759.19;5036233;27;96770;-31
2022/10/30 03:28:25;;;;;;;9.15;3.28;;;;;;;14.50;87.31;101765.88;5034215;28;101232;-30
2022/10/30 03:30:56;;;;;;;8.20;3.60;;;;;;;14.45;87.66;101768.91;5034243;27;100985;-29
2022/10/30 03:33:22;;;;;;;7.88;3.22;;;;;;;14.47;87.39;101771.50;5035494;27;96619;-30
2022/10/30 03:35:47;;;;;;;13.00;3.47;;;;;;;14.41;87.57;101767.34;5035874;27;96751;-31
2022/10/30 03:38:12;;;;;;;6.93;2.90;;;;;;;14.38;87.51;101768.41;5034940;28;110868;-30
2022/10/30 03:40:38;;;;;;;8.18;2.97;;;;;;;14.38;87.66;101773.84;5035069;27;101502;-31
2022/10/30 03:43:04;;;;;;;10.77;3.88;;;;;;;14.35;87.77;101768.59;5034336;28;96720;-29
2022/10/30 03:45:31;;;;;;;11.27;2.92;;;;;;;14.31;87.68;101772.50;5034372;28;96753;-30
2022/10/30 03:47:56;;;;;;;16.40;4.30;;;;;;;14.28;87.57;101772.69;5035319;27;97894;-29
2022/10/30 03:50:21;;;;;;;7.32;3.30;;;;;;;14.26;87.92;101765.59;5035421;28;112892;-29
2022/10/30 03:52:47;;;;;;;8.85;3.05;;;;;;;14.22;88.02;101768.47;5034654;28;107383;-29
2022/10/30 03:55:12;;;;;;;6.50;3.17;;;;;;;14.19;88.06;101770.53;5034399;27;96804;-30
2022/10/30 03:57:38;;;;;;;11.10;3.47;;;;;;;14.20;87.96;101775.00;5034892;27;97542;-30
2022/10/30 04:00:04;;;;;;;11.57;3.28;;;;;;;14.15;87.97;101782.59;5035240;27;97388;-31
2022/10/30 04:02:30;;;;;;;9.85;3.33;;;;;;;14.12;87.93;101778.19;5033808;28;96682;-29
2022/10/30 04:04:55;;;;;;;9.10;3.10;;;;;;;14.12;87.98;101782.78;5035328;28;96878;-29
2022/10/30 04:07:20;;;;;;;8.02;3.42;;;;;;;14.07;88.16;101785.78;5034424;28;113395;-29
2022/10/30 04:09:46;;;;;;;6.82;3.22;;;;;;;14.06;88.21;101783.16;5035146;27;97742;-31
2022/10/30 04:12:11;;;;;;;5.97;2.92;;;;;;;14.05;88.57;101784.13;5035561;27;96562;-29
2022/10/30 04:14:36;;;;;;;6.72;3.30;;;;;;;14.05;88.14;101789.59;5035229;27;96855;-30
2022/10/30 04:17:04;;;;;;;9.73;3.28;;;;;;;14.01;88.18;101784.31;5033669;27;122125;-29
2022/10/30 04:19:30;;;;;;;5.95;2.85;;;;;;;14.03;88.35;101779.63;5034779;27;99257;-29
2022/10/30 04:21:55;;;;;;;9.80;3.53;;;;;;;14.00;88.51;101781.69;5034625;27;96610;-30
2022/10/30 04:24:21;;;;;;;7.72;3.17;;;;;;;14.00;88.41;101785.28;5034949;27;96852;-29
2022/10/30 04:26:46;;;;;;;10.90;3.35;;;;;;;13.98;88.33;101775.44;5034925;28;97020;-32
2022/10/30 04:29:11;;;;;;;13.10;4.05;;;;;;;13.97;88.52;101776.44;5034732;27;97511;-29
2022/10/30 04:31:37;;;;;;;8.70;3.35;;;;;;;13.96;88.71;101778.25;5034854;27;96435;-29
2022/10/30 04:34:02;;;;;;;11.30;3.58;;;;;;;13.97;88.71;101776.44;5034831;27;96830;-29
2022/10/30 04:36:32;;;;;;;10.18;4.00;;;;;;;13.94;88.90;101780.22;5034689;27;97875;-29
2022/10/30 04:38:59;;;;;;;6.90;3.60;;;;;;;13.97;88.56;101776.44;5035061;27;99547;-30
2022/10/30 04:41:24;;;;;;;10.70;3.30;;;;;;;13.93;88.62;101767.56;5033358;28;96666;-29
2022/10/30 04:43:50;;;;;;;6.35;3.75;;;;;;;13.93;88.63;101756.66;5034922;28;96762;-30
2022/10/30 04:46:16;;;;;;;9.63;3.60;;;;;;;13.94;88.69;101758.44;5032457;28;101059;-29
2022/10/30 04:48:42;;;;;;;9.57;3.67;;;;;;;13.93;88.76;101762.09;5034426;28;104282;-30
2022/10/30 04:51:08;;;;;;;11.50;2.85;;;;;;;13.91;88.59;101749.56;5033308;28;96714;-30
2022/10/30 04:53:34;;;;;;;8.07;3.22;;;;;;;13.91;88.72;101746.84;5034559;27;96891;-30
2022/10/30 04:55:59;;;;;;;6.38;3.20;;;;;;;13.90;88.78;101745.09;5034227;27;99355;-29
2022/10/30 04:58:24;;;;;;;10.35;3.13;;;;;;;13.89;88.80;101748.78;5034372;28;102299;-30
2022/10/30 05:00:49;;;;;;;8.13;3.08;;;;;;;13.88;88.78;101741.59;5034243;27;96662;-30
2022/10/30 05:03:18;;;;;;;10.85;3.63;;;;;;;13.85;89.00;101736.31;5034989;27;96752;-32
2022/10/30 05:05:43;;;;;;;9.15;2.90;;;;;;;13.81;88.64;101741.06;5032794;27;100865;-29
2022/10/30 05:08:09;;;;;;;8.10;4.13;;;;;;;13.81;88.74;101752.84;5036513;28;100954;-29
2022/10/30 05:10:38;;;;;;;9.32;3.80;;;;;;;13.79;88.68;101751.19;5037775;28;96456;-30
2022/10/30 05:13:03;;;;;;;8.02;3.25;;;;;;;13.74;88.60;101751.47;5036782;28;96862;-30
2022/10/30 05:15:29;;;;;;;10.27;3.60;;;;;;;13.73;88.79;101763.34;5036332;28;116131;-30
2022/10/30 05:17:54;;;;;;;8.10;3.15;;;;;;;13.73;88.64;101768.78;5037487;27;99313;-30
2022/10/30 05:20:20;;;;;;;12.43;4.07;;;;;;;13.71;88.89;101768.00;5037230;28;101558;-30
2022/10/30 05:22:52;;;;;;;7.72;2.92;;;;;;;13.69;88.76;101763.59;5036458;28;96885;-30
2022/10/30 05:25:17;;;;;;;10.82;3.45;;;;;;;13.69;88.88;101763.59;5036106;28;101178;-29
2022/10/30 05:27:42;;;;;;;11.00;3.65;;;;;;;13.65;88.83;101760.16;5036775;27;125556;-30
2022/10/30 05:30:08;;;;;;;6.38;3.45;;;;;;;13.62;88.85;101754.91;5037659;27;96408;-30
2022/10/30 05:32:33;;;;;;;8.20;3.13;;;;;;;13.63;88.95;101751.22;5037681;27;96828;-31
2022/10/30 05:34:59;;;;;;;11.38;3.60;;;;;;;13.60;88.99;101752.28;5036584;28;109071;-29
2022/10/30 05:37:24;;;;;;;7.60;3.20;;;;;;;13.58;89.10;101758.78;5036855;28;116247;-29
2022/10/30 05:39:49;;;;;;;9.48;3.53;;;;;;;13.58;89.04;101756.94;5037698;27;96614;-30
2022/10/30 05:42:14;;;;;;;12.77;3.70;;;;;;;13.60;89.16;101765.03;5037084;28;106967;-30
2022/10/30 05:44:40;;;;;;;10.27;3.45;;;;;;;13.54;89.46;101762.69;5036828;28;108734;-29
2022/10/30 05:47:05;;;;;;;6.70;3.20;;;;;;;13.53;89.03;101767.22;5037009;28;105870;-30
2022/10/30 05:49:30;;;;;;;10.50;3.65;;;;;;;13.50;89.58;101761.97;5036960;28;96633;-30
2022/10/30 05:51:56;;;;;;;7.10;3.28;;;;;;;13.53;89.55;101775.38;5037984;27;96782;-29
2022/10/30 05:54:21;;;;;;;6.97;3.45;;;;;;;13.51;89.47;101776.44;5036306;28;116726;-30
2022/10/30 05:56:46;;;;;;;10.10;3.33;;;;;;;13.48;89.36;101774.78;5037061;27;99080;-29
2022/10/30 05:59:11;;;;;;;9.25;3.08;;;;;;;13.48;89.55;101782.09;5036251;28;107970;-31
2022/10/30 06:01:37;;;;;;;6.25;2.97;;;;;;;13.46;89.23;101795.78;5036625;28;109016;-30
2022/10/30 06:04:02;;;;;;;7.25;3.22;;;;;;;13.42;89.46;101777.88;5036559;28;101040;-29
2022/10/30 06:06:27;;;;;;;8.05;3.75;;;;;;;13.39;89.32;101780.78;5035617;28;101220;-30
2022/10/30 06:08:53;;;;;;;5.70;3.13;;;;;;;13.39;89.29;101788.94;5036921;28;99294;-31
2022/10/30 06:11:18;;;;;;;11.93;3.55;;;;;;;13.37;89.13;101785.41;5036306;28;116495;-29
2022/10/30 06:13:43;;;;;;;10.65;3.50;;;;;;;13.35;89.30;101790.09;5036442;28;111247;-30
2022/10/30 06:16:09;;;;;;;13.27;4.18;;;;;;;13.34;89.72;101785.59;5036029;28;106706;-29
2022/10/30 06:18:34;;;;;;;7.85;3.50;;;;;;;13.32;89.28;101776.66;5036125;27;96610;-29
2022/10/30 06:20:59;;;;;;;10.57;3.42;;;;;;;13.33;89.35;101779.28;5036778;28;96625;-29
2022/10/30 06:23:24;;;;;;;9.38;3.75;;;;;;;13.33;89.49;101782.00;5034341;28;112819;-30
2022/10/30 06:25:50;;;;;;;9.25;3.90;;;;;;;13.35;89.39;101780.09;5036865;27;97390;-30
2022/10/30 06:28:15;;;;;;;9.63;3.53;;;;;;;13.34;89.72;101777.44;5036880;28;96603;-29
2022/10/30 06:30:40;;;;;;;10.30;3.67;;;;;;;13.36;89.39;101786.41;5037072;27;96782;-30
2022/10/30 06:33:06;;;;;;;8.30;3.30;;;;;;;13.33;89.45;101781.16;5036219;27;99511;-30
2022/10/30 06:35:31;;;;;;;13.38;3.70;;;;;;;13.32;89.73;101790.25;5036646;28;97694;-30
2022/10/30 06:37:59;;;;;;;11.85;4.55;;;;;;;13.33;89.80;101792.91;5036424;28;99546;-30
2022/10/30 06:40:25;;;;;;;9.15;3.47;;;;;;;13.32;90.06;101785.72;5036953;27;96636;-30
2022/10/30 06:42:52;;;;;;;8.63;3.60;;;;;;;13.35;90.42;101788.25;5034951;28;101068;-29
2022/10/30 06:45:19;;;;;;;11.23;4.28;;;;;;;13.38;89.96;101785.34;5034861;28;100961;-29
2022/10/30 06:47:45;;;;;;;12.50;3.95;;;;;;;13.39;90.04;101778.03;5034319;28;96863;-29
2022/10/30 06:50:17;;;;;;;6.93;3.67;;;;;;;13.41;90.00;101776.13;5035218;28;96658;-29
2022/10/30 06:52:42;;;;;;;6.90;3.97;;;;;;;13.45;90.04;101771.38;5034859;28;101055;-29
2022/10/30 06:55:08;;;;;;;14.75;4.75;;;;;;;13.45;90.05;101766.81;5035975;27;97362;-29
2022/10/30 06:57:34;;;;;;;10.27;3.63;;;;;;;13.48;90.11;101761.19;5036373;27;96891;-29
2022/10/30 06:59:59;;;;;;;11.38;4.57;;;;;;;13.50;89.70;101766.53;5036586;27;96777;-30
2022/10/30 07:02:25;;;;;;;14.02;4.45;;;;;;;13.54;89.72;101762.69;5035925;28;98027;-29
2022/10/30 07:04:50;;;;;;;7.78;3.72;;;;;;;13.53;89.58;101753.63;5036195;28;99227;-29
2022/10/30 07:07:16;;;;;;;8.15;4.10;;;;;;;13.55;89.63;101756.25;5036422;27;96573;-30
2022/10/30 07:09:42;;;;;;;9.98;4.03;;;;;;;13.58;89.51;101761.50;5035036;28;96849;-29
2022/10/30 07:12:07;;;;;;;14.45;3.83;;;;;;;13.58;89.47;101756.94;5035517;27;97848;-30
2022/10/30 07:14:34;;;;;;;9.13;3.42;;;;;;;13.63;89.50;101753.94;5036057;27;97625;-30
2022/10/30 07:16:59;;;;;;;14.60;4.60;;;;;;;13.65;89.75;101772.91;5034155;28;96690;-30
2022/10/30 07:19:24;;;;;;;16.10;4.72;;;;;;;13.64;89.46;101761.16;5036384;27;96778;-29
2022/10/30 07:21:50;;;;;;;17.13;4.18;;;;;;;13.68;89.49;101767.28;5035734;27;98135;-30
2022/10/30 07:24:15;;;;;;;16.52;4.10;;;;;;;13.70;89.58;101768.06;5035963;27;97188;-29
2022/10/30 07:26:41;;;;;;;8.23;3.42;;;;;;;13.71;89.38;101768.00;5035849;27;96480;-30
2022/10/30 07:29:06;;;;;;;12.07;4.25;;;;;;;13.75;89.38;101771.38;5036039;27;98376;-30
2022/10/30 07:31:31;;;;;;;7.22;3.85;;;;;;;13.75;89.37;101763.22;5035398;28;97869;-29
2022/10/30 07:33:57;;;;;;;12.27;4.05;;;;;;;13.78;89.49;101771.22;5035510;27;98152;-29
2022/10/30 07:36:22;;;;;;;12.88;4.18;;;;;;;13.78;89.48;101774.81;5034843;28;107162;-29
2022/10/30 07:38:48;;;;;;;11.02;4.15;;;;;;;13.80;89.51;101781.06;5035877;28;96753;-31
2022/10/30 07:41:14;;;;;;;9.55;3.85;;;;;;;13.81;89.09;101773.75;5033971;28;101443;-29
2022/10/30 07:43:39;;;;;;;10.52;4.22;;;;;;;13.85;89.60;101780.78;5035557;28;97257;-29
2022/10/30 07:46:05;;;;;;;12.70;4.82;;;;;;;13.85;89.42;101778.06;5035561;28;96714;-30
2022/10/30 07:48:30;;;;;;;12.75;4.55;;;;;;;13.87;89.30;101784.28;5035900;27;96633;-29
2022/10/30 07:50:55;;;;;;;7.43;3.47;;;;;;;13.91;89.36;101776.78;5035443;27;98125;-29
2022/10/30 07:53:21;;;;;;;8.38;4.20;;;;;;;13.92;89.88;101771.25;5035269;27;99139;-29
2022/10/30 07:55:46;;;;;;;7.97;4.13;;;;;;;13.93;89.58;101775.72;5035650;27;97135;-30
2022/10/30 07:58:11;;;;;;;13.38;5.38;;;;;;;13.98;89.54;101770.88;5035308;27;96813;-29
2022/10/30 08:00:37;;;;;;;9.43;4.10;;;;;;;14.02;89.54;101777.91;5034456;27;97922;-29
2022/10/30 08:03:02;;;;;;;11.25;4.45;;;;;;;14.06;89.48;101781.28;5035142;27;97800;-29
2022/10/30 08:05:27;;;;;;;11.52;4.80;;;;;;;14.08;89.33;101773.91;5035623;27;96502;-29
2022/10/30 08:07:53;;;;;;;10.88;4.78;;;;;;;14.10;89.26;101784.72;5035520;27;96825;-29
2022/10/30 08:10:18;;;;;;;11.10;5.22;;;;;;;14.15;89.48;101790.75;5034894;28;99687;-29
2022/10/30 08:12:44;;;;;;;11.85;4.18;;;;;;;14.18;89.51;101783.28;5035057;27;97870;-29
2022/10/30 08:15:11;;;;;;;13.77;4.65;;;;;;;14.22;89.17;101781.22;5034389;28;96695;-30
2022/10/30 08:17:43;;;;;;;12.45;5.53;;;;;;;14.30;88.98;101792.56;5035769;27;96613;-30
2022/10/30 08:20:11;;;;;;;8.82;4.50;;;;;;;14.34;89.22;101799.53;5033504;28;101568;-31
2022/10/30 08:22:46;;;;;;;13.48;5.10;;;;;;;14.39;89.34;101796.53;5033200;28;101085;-30
2022/10/30 08:25:11;;;;;;;11.43;4.72;;;;;;;14.41;89.83;101800.91;5033170;28;96586;-29
2022/10/30 08:27:37;;;;;;;13.85;4.65;;;;;;;14.45;89.75;101798.88;5035217;27;96878;-30
2022/10/30 08:30:02;;;;;;;18.98;4.75;;;;;;;14.52;89.39;101802.13;5034497;27;100329;-29
2022/10/30 08:32:28;;;;;;;10.25;5.05;;;;;;;14.60;89.21;101802.53;5034525;27;99776;-29
2022/10/30 08:34:53;;;;;;;9.70;4.38;;;;;;;14.64;90.10;101794.06;5035268;27;96669;-30
2022/10/30 08:37:18;;;;;;;16.60;4.97;;;;;;;14.72;89.69;101792.69;5034993;27;97697;-30
2022/10/30 08:39:44;;;;;;;17.50;5.20;;;;;;;14.82;88.95;101792.00;5034652;27;97601;-29
2022/10/30 08:42:09;;;;;;;14.60;4.93;;;;;;;14.92;88.67;101789.56;5034198;27;101632;-29
2022/10/30 08:44:34;;;;;;;15.68;5.07;;;;;;;14.98;88.96;101783.69;5034518;27;96663;-30
2022/10/30 08:47:00;;;;;;;9.27;4.45;;;;;;;15.05;89.01;101785.06;5034900;28;96827;-29
2022/10/30 08:49:25;;;;;;;10.15;4.60;;;;;;;15.08;88.35;101789.44;5034216;27;97464;-30
2022/10/30 08:51:50;;;;;;;13.38;4.78;;;;;;;15.14;88.17;101786.31;5034228;27;99340;-30
2022/10/30 08:54:16;;;;;;;15.93;4.97;;;;;;;15.15;87.91;101785.31;5034704;27;96819;-29
2022/10/30 08:56:41;;;;;;;11.15;4.75;;;;;;;15.21;87.97;101793.13;5034450;27;96799;-29
2022/10/30 08:59:06;;;;;;;11.20;4.95;;;;;;;15.23;87.70;101782.97;5034304;27;97912;-29
2022/10/30 09:01:32;;;;;;;13.50;5.22;;;;;;;15.28;88.01;101785.41;5034198;27;102928;-30
2022/10/30 09:03:57;;;;;;;11.95;5.10;;;;;;;15.36;87.73;101793.06;5034736;27;96550;-29
2022/10/30 09:06:22;;;;;;;8.80;4.32;;;;;;;15.42;87.55;101798.09;5034995;27;97431;-29
2022/10/30 09:08:48;;;;;;;10.23;4.78;;;;;;;15.51;87.57;101798.38;5034338;27;97878;-29
2022/10/30 09:11:13;;;;;;;12.55;4.75;;;;;;;15.58;87.53;101803.44;5034219;28;99766;-29
2022/10/30 09:13:38;;;;;;;10.57;4.95;;;;;;;15.63;87.16;101799.41;5033931;27;96704;-29
2022/10/30 09:16:04;;;;;;;15.75;5.03;;;;;;;15.65;87.14;101796.56;5034008;28;96804;-30
2022/10/30 09:18:30;;;;;;;13.50;4.80;;;;;;;15.73;86.83;101796.97;5033927;27;99322;-29
2022/10/30 09:20:55;;;;;;;15.70;5.25;;;;;;;15.80;86.73;101801.03;5033748;28;99122;-30
2022/10/30 09:23:20;;;;;;;14.30;4.95;;;;;;;15.87;86.52;101798.75;5034001;28;101440;-29
2022/10/30 09:25:46;;;;;;;12.30;5.32;;;;;;;15.92;86.55;101788.38;5034216;27;96535;-30
2022/10/30 09:28:11;;;;;;;15.63;6.20;;;;;;;16.02;86.39;101797.69;5034037;27;97864;-29
2022/10/30 09:30:36;;;;;;;12.23;5.38;;;;;;;16.11;86.25;101791.59;5034104;27;98586;-30
2022/10/30 09:33:02;;;;;;;13.90;5.15;;;;;;;16.24;86.11;101796.19;5034379;27;96644;-29
2022/10/30 09:35:28;;;;;;;12.30;4.93;;;;;;;16.34;86.01;101797.28;5034269;28;96821;-30
2022/10/30 09:37:54;;;;;;;11.75;5.03;;;;;;;16.42;85.98;101794.91;5031956;28;99423;-29
2022/10/30 09:40:41;;;;;;;14.50;5.65;;;;;;;16.54;85.65;101799.50;5032460;28;100881;-29
2022/10/30 09:43:34;;;;;;;11.15;5.28;;;;;;;16.68;85.16;101789.41;5032835;28;96660;-30
2022/10/30 09:46:52;;;;;;;12.15;5.72;;;;;;;16.82;84.68;101792.03;5032782;28;96724;-29
2022/10/30 09:49:42;;;;;;;10.77;4.63;;;;;;;17.02;84.11;101790.59;4987870;27;99291;-31
2022/10/30 09:52:34;;;;;;;16.25;5.95;;;;;;;17.20;83.60;101788.34;5032383;27;100733;-31
2022/10/30 09:55:10;;;;;;;12.45;5.75;;;;;;;17.41;82.97;101797.69;5035834;28;96984;-32
2022/10/30 09:57:52;;;;;;;14.02;5.43;;;;;;;17.55;82.75;101795.78;5036396;28;96848;-30
2022/10/30 10:00:21;;;;;;;14.15;6.03;;;;;;;17.62;82.40;101792.44;5035668;28;101378;-29
2022/10/30 10:03:11;;;;;;;13.85;5.88;;;;;;;17.74;82.01;101792.50;5035435;28;100828;-29
2022/10/30 10:06:10;;;;;;;15.30;5.68;;;;;;;17.92;81.69;101792.97;5036882;28;96787;-30
2022/10/30 10:08:40;;;;;;;13.98;5.50;;;;;;;18.09;81.39;101776.09;5029357;27;96672;-30
2022/10/30 10:11:37;;;;;;;14.73;5.38;;;;;;;18.30;80.12;101783.59;5035591;28;101000;-29
2022/10/30 10:14:10;;;;;;;12.85;5.63;;;;;;;18.37;79.79;101784.88;5035701;27;98745;-30
2022/10/30 10:16:39;;;;;;;12.73;5.13;;;;;;;18.46;78.92;101786.88;5034900;27;96987;-29
2022/10/30 10:19:10;;;;;;;12.40;5.28;;;;;;;18.66;79.13;101797.16;5035693;28;96771;-30
2022/10/30 10:21:44;;;;;;;14.77;5.47;;;;;;;18.85;79.29;101788.31;5035217;28;100961;-29
2022/10/30 10:24:31;;;;;;;15.57;6.30;;;;;;;19.11;78.23;101799.00;5035559;28;100914;-30
2022/10/30 10:27:24;;;;;;;17.45;5.85;;;;;;;19.21;77.66;101789.03;5029627;27;96924;-29
2022/10/30 10:30:03;;;;;;;12.95;5.20;;;;;;;19.29;77.91;101785.63;5036891;28;96987;-29
2022/10/30 10:32:37;;;;;;;16.60;5.78;;;;;;;19.30;78.21;101782.75;5036325;27;97936;-30
2022/10/30 10:35:30;;;;;;;16.08;5.20;;;;;;;19.43;77.49;101777.13;5034941;28;100917;-31
2022/10/30 10:38:33;;;;;;;16.63;4.90;;;;;;;19.49;76.45;101776.56;5035384;28;96677;-30
2022/10/30 10:41:11;;;;;;;10.70;4.85;;;;;;;19.48;76.02;101765.72;5036434;28;96667;-30
2022/10/30 10:44:08;;;;;;;18.23;5.35;;;;;;;19.46;75.68;101770.47;5034910;28;100818;-29
2022/10/30 10:46:47;;;;;;;13.23;4.38;;;;;;;19.39;76.33;101763.75;5036150;28;99403;-29
2022/10/30 10:49:19;;;;;;;10.95;4.97;;;;;;;19.43;76.81;101754.25;5035379;28;96621;-29
2022/10/30 10:51:58;;;;;;;11.73;4.18;;;;;;;19.47;76.15;101756.63;5037237;27;96716;-30
2022/10/30 10:54:34;;;;;;;9.80;5.07;;;;;;;19.52;74.80;101747.97;5034802;28;100593;-30
2022/10/30 10:57:04;;;;;;;20.25;5.10;;;;;;;19.50;74.33;101750.00;5034798;28;99463;-30
2022/10/30 10:59:40;;;;;;;16.10;5.18;;;;;;;19.68;74.02;101748.44;5034403;28;96772;-32
2022/10/30 11:02:08;;;;;;;13.80;5.18;;;;;;;19.85;75.09;101746.09;5036229;28;96824;-30
2022/10/30 11:04:40;;;;;;;19.58;5.55;;;;;;;19.88;73.20;101746.72;5035460;28;98035;-29
2022/10/30 11:07:20;;;;;;;16.73;4.97;;;;;;;19.84;73.44;101752.63;5034594;28;100696;-30
2022/10/30 11:09:50;;;;;;;10.35;4.70;;;;;;;19.83;75.39;101751.75;5034933;28;96805;-30
2022/10/30 11:12:18;;;;;;;17.15;5.55;;;;;;;19.89;75.86;101755.84;5034788;28;96768;-31
2022/10/30 11:14:43;;;;;;;12.18;4.07;;;;;;;19.84;75.00;101753.50;5034152;28;101346;-30
2022/10/30 11:17:31;;;;;;;15.63;5.05;;;;;;;19.78;74.32;101748.50;5035977;27;97768;-29
2022/10/30 11:20:00;;;;;;;12.43;4.93;;;;;;;19.65;75.28;101742.31;5034630;27;96579;-30
2022/10/30 11:22:39;;;;;;;16.23;4.47;;;;;;;19.60;75.94;101741.81;5035826;27;96744;-30
2022/10/30 11:25:21;;;;;;;12.55;4.50;;;;;;;19.53;75.48;101734.09;5033670;28;101423;-30
2022/10/30 11:27:57;;;;;;;;;;;;;;;19.46;73.75;101737.50;5034629;28;101313;-29